Time,TemperatureF,DewpointF,PressureIn,WindDirection,WindDirectionDegrees,WindSpeedMPH,WindSpeedGustMPH,Humidity,HourlyPrecipIn,Conditions,Clouds,dailyrainin,SoftwareType,DateUTC
2013-03-24 00:03:00,75.0,75.0,29.87,SSE,164,0.0,-999.0,100,-99.99,,,-99.99,,2013-03-24 04:03:00,
2013-03-24 00:13:00,75.0,75.0,29.87,SSE,164,0.0,-999.0,100,-99.99,,,-99.99,,2013-03-24 04:13:00,
2013-03-24 00:23:00,75.0,-32.0,29.87,SSE,164,0.0,-999.0,1,-99.99,,,-99.99,,2013-03-24 04:23:00,
2013-03-24 01:32:00,74.0,-6.0,29.85,SSE,164,0.0,-999.0,4,-99.99,,,-99.99,,2013-03-24 05:32:00,
2013-03-24 01:42:00,74.0,-6.0,29.85,SSE,164,0.0,-999.0,4,-99.99,,,-99.99,,2013-03-24 05:42:00,
2013-03-24 01:52:00,74.0,14.0,29.85,SSE,164,0.0,-999.0,10,-99.99,,,-99.99,,2013-03-24 05:52:00,
2013-03-24 02:02:00,74.0,23.0,29.84,SSE,164,0.0,-999.0,15,-99.99,,,-99.99,,2013-03-24 06:02:00,
2013-03-24 02:12:00,74.0,23.0,29.84,SSE,164,0.0,-999.0,15,-99.99,,,-99.99,,2013-03-24 06:12:00,
2013-03-24 02:22:00,74.0,32.0,29.84,SSE,164,0.0,-999.0,21,-99.99,,,-99.99,,2013-03-24 06:22:00,
2013-03-24 02:52:00,74.0,41.0,29.83,SSE,164,0.0,-999.0,30,-99.99,,,-99.99,,2013-03-24 06:52:00,
2013-03-24 03:02:00,74.0,41.0,29.83,SSE,164,0.0,-999.0,30,-99.99,,,-99.99,,2013-03-24 07:02:00,
2013-03-24 03:12:00,74.0,41.0,29.83,SSE,164,0.0,-999.0,30,-99.99,,,-99.99,,2013-03-24 07:12:00,
2013-03-24 03:22:00,74.0,45.0,29.81,SSE,164,0.0,-999.0,35,-99.99,,,-99.99,,2013-03-24 07:22:00,
2013-03-24 03:32:00,73.0,41.0,29.80,SSE,164,0.0,-999.0,31,-99.99,,,-99.99,,2013-03-24 07:32:00,
2013-03-24 03:42:00,73.0,41.0,29.80,SSE,164,0.0,-999.0,31,-99.99,,,-99.99,,2013-03-24 07:42:00,
2013-03-24 03:52:00,73.0,40.0,29.80,SSE,164,0.0,-999.0,30,-99.99,,,-99.99,,2013-03-24 07:52:00,
2013-03-24 04:03:00,73.0,35.0,29.80,SSE,164,3.0,-999.0,25,-99.99,,,-99.99,,2013-03-24 08:03:00,
2013-03-24 04:12:00,73.0,35.0,29.80,SSE,164,3.0,-999.0,25,-99.99,,,-99.99,,2013-03-24 08:12:00,
2013-03-24 04:22:00,73.0,32.0,29.79,SSE,164,1.0,-999.0,22,-99.99,,,-99.99,,2013-03-24 08:22:00,
2013-03-24 04:32:00,73.0,19.0,29.78,SSE,163,0.0,-999.0,13,-99.99,,,-99.99,,2013-03-24 08:32:00,
2013-03-24 04:42:00,73.0,19.0,29.78,SSE,163,0.0,-999.0,13,-99.99,,,-99.99,,2013-03-24 08:42:00,
2013-03-24 05:53:00,73.0,73.0,29.77,SSE,168,0.0,-999.0,100,-99.99,,,-99.99,,2013-03-24 09:53:00,
2013-03-24 06:03:00,73.0,73.0,29.77,SSE,167,4.0,-999.0,100,-99.99,,,-99.99,,2013-03-24 10:03:00,
2013-03-24 06:12:00,73.0,73.0,29.77,SSE,167,4.0,-999.0,100,-99.99,,,-99.99,,2013-03-24 10:12:00,
2013-03-24 06:23:00,73.0,73.0,29.77,South,171,0.0,-999.0,100,-99.99,,,-99.99,,2013-03-24 10:23:00,
2013-03-24 06:33:00,73.0,73.0,29.76,South,170,0.0,-999.0,100,-99.99,,,-99.99,,2013-03-24 10:33:00,
2013-03-24 06:42:00,73.0,73.0,29.76,South,170,0.0,-999.0,100,-99.99,,,-99.99,,2013-03-24 10:42:00,
2013-03-24 06:52:00,73.0,73.0,29.76,South,172,0.0,-999.0,100,-99.99,,,-99.99,,2013-03-24 10:52:00,
2013-03-24 07:03:00,73.0,73.0,29.76,South,173,2.0,-999.0,100,-99.99,,,-99.99,,2013-03-24 11:03:00,
2013-03-24 07:12:00,73.0,73.0,29.76,South,173,2.0,-999.0,100,-99.99,,,-99.99,,2013-03-24 11:12:00,
2013-03-24 07:22:00,73.0,73.0,29.76,South,174,0.0,-999.0,100,-99.99,,,-99.99,,2013-03-24 11:22:00,
2013-03-24 07:33:00,73.0,73.0,29.75,South,172,4.0,-999.0,100,-99.99,,,-99.99,,2013-03-24 11:33:00,
2013-03-24 07:42:00,73.0,73.0,29.75,South,172,4.0,-999.0,100,-99.99,,,-99.99,,2013-03-24 11:42:00,
2013-03-24 07:52:00,67.0,67.0,29.75,South,174,7.0,-999.0,100,-99.99,,,-99.99,,2013-03-24 11:52:00,
2013-03-24 08:03:00,69.0,69.0,29.74,SSE,168,8.0,-999.0,100,-99.99,,,-99.99,,2013-03-24 12:03:00,
2013-03-24 08:12:00,69.0,69.0,29.74,SSE,168,8.0,-999.0,100,-99.99,,,-99.99,,2013-03-24 12:12:00,
2013-03-24 08:22:00,74.0,74.0,29.75,South,180,0.0,-999.0,100,-99.99,,,-99.99,,2013-03-24 12:22:00,
2013-03-24 08:52:00,75.0,75.0,29.74,South,189,10.0,-999.0,100,-99.99,,,-99.99,,2013-03-24 12:52:00,
2013-03-24 09:02:00,76.0,74.0,29.75,South,174,11.0,-999.0,94,-99.99,,,-99.99,,2013-03-24 13:02:00,
2013-03-24 09:12:00,76.0,74.0,29.75,South,174,11.0,-999.0,94,-99.99,,,-99.99,,2013-03-24 13:12:00,
2013-03-24 09:22:00,76.0,73.0,29.74,South,189,0.0,-999.0,90,-99.99,,,-99.99,,2013-03-24 13:22:00,
2013-03-24 09:32:00,77.0,73.0,29.74,SSE,160,3.0,-999.0,88,-99.99,,,-99.99,,2013-03-24 13:32:00,
2013-03-24 09:42:00,77.0,73.0,29.74,SSE,160,3.0,-999.0,88,-99.99,,,-99.99,,2013-03-24 13:42:00,
2013-03-24 09:52:00,77.0,74.0,29.74,South,182,9.0,-999.0,91,-99.99,,,-99.99,,2013-03-24 13:52:00,
2013-03-24 10:02:00,78.0,77.0,29.74,South,183,5.0,-999.0,96,-99.99,,,-99.99,,2013-03-24 14:02:00,
2013-03-24 10:12:00,78.0,77.0,29.74,South,183,5.0,-999.0,96,-99.99,,,-99.99,,2013-03-24 14:12:00,
2013-03-24 11:22:00,81.0,81.0,29.75,SW,214,8.0,-999.0,100,-99.99,,,-99.99,,2013-03-24 15:22:00,
2013-03-24 11:33:00,81.0,53.0,29.75,SSW,195,17.0,-999.0,38,-99.99,,,-99.99,,2013-03-24 15:33:00,
2013-03-24 11:43:00,81.0,53.0,29.75,SSW,195,17.0,-999.0,38,-99.99,,,-99.99,,2013-03-24 15:43:00,
2013-03-24 11:53:00,84.0,67.0,29.76,SSW,197,12.0,-999.0,56,-99.99,,,-99.99,,2013-03-24 15:53:00,
2013-03-24 12:03:00,84.0,55.0,29.75,SSW,200,5.0,-999.0,37,-99.99,,,-99.99,,2013-03-24 16:03:00,
2013-03-24 12:13:00,84.0,55.0,29.75,SSW,200,5.0,-999.0,37,-99.99,,,-99.99,,2013-03-24 16:13:00,
2013-03-24 12:52:00,86.0,50.0,29.74,SW,220,16.0,-999.0,29,-99.99,,,-99.99,,2013-03-24 16:52:00,
2013-03-24 13:02:00,87.0,28.0,29.74,SW,226,5.0,-999.0,12,-99.99,,,-99.99,,2013-03-24 17:02:00,
2013-03-24 13:12:00,87.0,28.0,29.74,SW,226,5.0,-999.0,12,-99.99,,,-99.99,,2013-03-24 17:12:00,
2013-03-24 13:23:00,87.0,-25.0,29.73,SSW,205,16.0,-999.0,1,-99.99,,,-99.99,,2013-03-24 17:23:00,
2013-03-24 13:33:00,81.0,81.0,29.73,SSW,213,19.0,-999.0,100,-99.99,,,-99.99,,2013-03-24 17:33:00,
2013-03-24 13:42:00,81.0,81.0,29.73,SSW,213,19.0,-999.0,100,-99.99,,,-99.99,,2013-03-24 17:42:00,
2013-03-24 14:32:00,89.0,89.0,29.72,SW,214,8.0,-999.0,100,-99.99,,,-99.99,,2013-03-24 18:32:00,
2013-03-24 14:43:00,89.0,89.0,29.72,SW,214,8.0,-999.0,100,-99.99,,,-99.99,,2013-03-24 18:43:00,
2013-03-24 14:52:00,90.0,90.0,29.71,SW,234,7.0,-999.0,100,-99.99,,,-99.99,,2013-03-24 18:52:00,
2013-03-24 15:02:00,90.0,90.0,29.70,SSW,198,10.0,-999.0,100,-99.99,,,-99.99,,2013-03-24 19:02:00,
2013-03-24 15:12:00,90.0,90.0,29.70,SSW,198,10.0,-999.0,100,-99.99,,,-99.99,,2013-03-24 19:12:00,
2013-03-24 15:22:00,89.0,89.0,29.70,SW,217,15.0,-999.0,100,-99.99,,,-99.99,,2013-03-24 19:22:00,
2013-03-24 15:32:00,90.0,90.0,29.67,WSW,237,12.0,-999.0,100,-99.99,,,-99.99,,2013-03-24 19:32:00,
2013-03-24 15:43:00,90.0,90.0,29.67,WSW,237,12.0,-999.0,100,-99.99,,,-99.99,,2013-03-24 19:43:00,
2013-03-24 15:52:00,90.0,90.0,29.68,SW,218,9.0,-999.0,100,-99.99,,,-99.99,,2013-03-24 19:52:00,
2013-03-24 16:03:00,89.0,89.0,29.67,SW,216,7.0,-999.0,100,-99.99,,,-99.99,,2013-03-24 20:03:00,
2013-03-24 16:12:00,89.0,89.0,29.67,SW,216,7.0,-999.0,100,-99.99,,,-99.99,,2013-03-24 20:12:00,
2013-03-24 16:22:00,88.0,86.0,29.67,SSW,209,20.0,-999.0,93,-99.99,,,-99.99,,2013-03-24 20:22:00,
2013-03-24 16:32:00,89.0,87.0,29.67,SW,218,16.0,-999.0,95,-99.99,,,-99.99,,2013-03-24 20:32:00,
2013-03-24 16:42:00,89.0,87.0,29.67,SW,218,16.0,-999.0,95,-99.99,,,-99.99,,2013-03-24 20:42:00,
2013-03-24 16:53:00,88.0,85.0,29.67,SW,226,13.0,-999.0,91,-99.99,,,-99.99,,2013-03-24 20:53:00,
2013-03-24 17:02:00,87.0,83.0,29.67,SW,221,9.0,-999.0,89,-99.99,,,-99.99,,2013-03-24 21:02:00,
2013-03-24 17:12:00,87.0,83.0,29.67,SW,221,9.0,-999.0,89,-99.99,,,-99.99,,2013-03-24 21:12:00,
2013-03-24 17:22:00,87.0,83.0,29.67,SW,226,9.0,-999.0,88,-99.99,,,-99.99,,2013-03-24 21:22:00,
2013-03-24 17:33:00,87.0,83.0,29.67,WSW,254,5.0,-999.0,87,-99.99,,,-99.99,,2013-03-24 21:33:00,
2013-03-24 17:43:00,87.0,83.0,29.67,WSW,254,5.0,-999.0,87,-99.99,,,-99.99,,2013-03-24 21:43:00,
2013-03-24 17:53:00,86.0,81.0,29.66,SW,230,7.0,-999.0,85,-99.99,,,-99.99,,2013-03-24 21:53:00,
2013-03-24 18:23:00,84.0,-26.0,29.67,SW,223,10.0,-999.0,1,-99.99,,,-99.99,,2013-03-24 22:23:00,
2013-03-24 18:53:00,72.0,69.0,29.66,SW,218,11.0,-999.0,89,-99.99,,,-99.99,,2013-03-24 22:53:00,
2013-03-24 19:03:00,75.0,73.0,29.68,SW,224,6.0,-999.0,93,-99.99,,,-99.99,,2013-03-24 23:03:00,
2013-03-24 19:12:00,75.0,73.0,29.68,SW,224,6.0,-999.0,93,-99.99,,,-99.99,,2013-03-24 23:12:00,
2013-03-24 19:32:00,80.0,79.0,29.70,WSW,255,3.0,-999.0,97,-99.99,,,-99.99,,2013-03-24 23:32:00,
2013-03-24 19:42:00,80.0,79.0,29.70,WSW,255,3.0,-999.0,97,-99.99,,,-99.99,,2013-03-24 23:42:00,
2013-03-24 19:53:00,76.0,76.0,29.71,WSW,243,8.0,-999.0,100,-99.99,,,-99.99,,2013-03-24 23:53:00,
2013-03-24 20:22:00,80.0,80.0,29.72,SW,231,0.0,-999.0,100,-99.99,,,-99.99,,2013-03-25 00:22:00,
2013-03-24 20:32:00,80.0,80.0,29.73,WSW,238,0.0,-999.0,100,-99.99,,,-99.99,,2013-03-25 00:32:00,
2013-03-24 20:42:00,80.0,80.0,29.73,WSW,238,0.0,-999.0,100,-99.99,,,-99.99,,2013-03-25 00:42:00,
2013-03-24 20:53:00,79.0,79.0,29.73,WSW,244,1.0,-999.0,100,-99.99,,,-99.99,,2013-03-25 00:53:00,
2013-03-24 21:02:00,79.0,79.0,29.74,WSW,240,3.0,-999.0,100,-99.99,,,-99.99,,2013-03-25 01:02:00,
2013-03-24 21:12:00,79.0,79.0,29.74,WSW,240,3.0,-999.0,100,-99.99,,,-99.99,,2013-03-25 01:12:00,
2013-03-24 21:22:00,75.0,75.0,29.75,NW,304,2.0,-999.0,100,-99.99,,,-99.99,,2013-03-25 01:22:00,
2013-03-24 21:32:00,74.0,74.0,29.76,WNW,294,0.0,-999.0,100,-99.99,,,-99.99,,2013-03-25 01:32:00,
2013-03-24 21:42:00,74.0,74.0,29.76,WNW,294,0.0,-999.0,100,-99.99,,,-99.99,,2013-03-25 01:42:00,
2013-03-24 21:53:00,70.0,70.0,29.75,WNW,294,0.0,-999.0,100,-99.99,,,-99.99,,2013-03-25 01:53:00,
2013-03-24 22:02:00,72.0,72.0,29.75,WNW,294,0.0,-999.0,100,-99.99,,,-99.99,,2013-03-25 02:02:00,
2013-03-24 22:12:00,72.0,72.0,29.75,WNW,294,0.0,-999.0,100,-99.99,,,-99.99,,2013-03-25 02:12:00,
2013-03-24 22:22:00,72.0,72.0,29.75,WNW,294,0.0,-999.0,100,-99.99,,,-99.99,,2013-03-25 02:22:00,
2013-03-24 22:33:00,73.0,73.0,29.75,WNW,294,0.0,-999.0,100,-99.99,,,-99.99,,2013-03-25 02:33:00,
2013-03-24 22:42:00,73.0,73.0,29.75,WNW,294,0.0,-999.0,100,-99.99,,,-99.99,,2013-03-25 02:42:00,
2013-03-24 22:52:00,72.0,72.0,29.76,WNW,294,0.0,-999.0,100,-99.99,,,-99.99,,2013-03-25 02:52:00,
2013-03-24 23:03:00,72.0,72.0,29.75,WNW,294,0.0,-999.0,100,-99.99,,,-99.99,,2013-03-25 03:03:00,
2013-03-24 23:13:00,72.0,72.0,29.75,WNW,294,0.0,-999.0,100,-99.99,,,-99.99,,2013-03-25 03:13:00,
2013-03-24 23:23:00,71.0,71.0,29.75,WNW,294,0.0,-999.0,100,-99.99,,,-99.99,,2013-03-25 03:23:00,
2013-03-24 23:33:00,71.0,71.0,29.75,WNW,294,0.0,-999.0,100,-99.99,,,-99.99,,2013-03-25 03:33:00,
2013-03-24 23:43:00,71.0,71.0,29.75,WNW,294,0.0,-999.0,100,-99.99,,,-99.99,,2013-03-25 03:43:00,
2013-03-24 23:53:00,71.0,71.0,29.75,WNW,294,0.0,-999.0,100,-99.99,,,-99.99,,2013-03-25 03:53:00,